Time;durP1;ratioP1;P1;durP2;ratioP2;P2;SDS_P1;SDS_P2;PMS_P1;PMS_P2;Temp;Humidity;BMP_temperature;BMP_pressure;BME280_temperature;BME280_humidity;BME280_pressure;Samples;Min_cycle;Max_cycle;Signal;HPM_P1;HPM_P2
2023/02/03 00:01:19;;;;;;;1.02;0.10;;;7.60;84.30;;;;;;5093413;28;20035;-71
2023/02/03 00:03:45;;;;;;;0.85;0.35;;;7.60;84.20;;;;;;5089198;27;20032;-71
2023/02/03 00:06:10;;;;;;;0.52;0.20;;;7.40;84.90;;;;;;5086907;28;20027;-71
2023/02/03 00:08:37;;;;;;;0.40;0.20;;;7.40;84.70;;;;;;5094251;28;20036;-71
2023/02/03 00:11:03;;;;;;;0.65;0.22;;;7.30;85.00;;;;;;5092702;28;20031;-71
2023/02/03 00:13:28;;;;;;;1.05;0.43;;;7.20;85.40;;;;;;5092003;28;20093;-70
2023/02/03 00:15:54;;;;;;;2.50;0.25;;;7.00;86.00;;;;;;5089068;28;20047;-71
2023/02/03 00:18:20;;;;;;;0.90;0.20;;;7.10;85.50;;;;;;5087234;28;20034;-71
2023/02/03 00:20:46;;;;;;;1.27;0.40;;;7.00;86.00;;;;;;5105042;28;20030;-71
2023/02/03 00:23:12;;;;;;;1.27;0.15;;;7.10;85.50;;;;;;5091022;28;20039;-71
2023/02/03 00:25:38;;;;;;;0.10;0.10;;;7.00;85.90;;;;;;5091265;28;20478;-71
2023/02/03 00:28:04;;;;;;;1.23;0.20;;;7.20;85.40;;;;;;5099017;28;20115;-71
2023/02/03 00:30:32;;;;;;;0.10;0.10;;;7.20;85.60;;;;;;5091400;28;25073;-71
2023/02/03 00:32:58;;;;;;;0.30;0.13;;;7.00;86.20;;;;;;5090703;28;20042;-71
2023/02/03 00:35:24;;;;;;;0.73;0.08;;;6.90;86.30;;;;;;5090365;28;20440;-71
2023/02/03 00:37:53;;;;;;;0.10;0.00;;;7.00;86.30;;;;;;5093107;28;20051;-71
2023/02/03 00:40:21;;;;;;;0.68;0.30;;;6.80;86.60;;;;;;5094355;28;20035;-71
2023/02/03 00:42:47;;;;;;;0.28;0.13;;;6.80;86.70;;;;;;5101299;28;20103;-71
2023/02/03 00:45:13;;;;;;;0.30;0.10;;;6.80;86.70;;;;;;5094526;28;20110;-71
2023/02/03 00:47:38;;;;;;;0.57;0.20;;;6.30;87.90;;;;;;5098478;28;20024;-71
2023/02/03 00:50:06;;;;;;;0.30;0.00;;;6.20;88.40;;;;;;5093369;28;20675;-71
2023/02/03 00:52:31;;;;;;;1.38;0.50;;;6.10;88.60;;;;;;5102866;28;20024;-71
2023/02/03 00:54:57;;;;;;;1.38;0.10;;;6.10;88.80;;;;;;5097458;28;20432;-71
2023/02/03 00:57:22;;;;;;;0.25;0.00;;;6.20;89.00;;;;;;5101840;28;20084;-71
2023/02/03 00:59:48;;;;;;;0.38;0.20;;;6.30;88.60;;;;;;5097493;28;20066;-71
2023/02/03 01:02:15;;;;;;;0.57;0.20;;;6.60;87.90;;;;;;5098973;28;20019;-71
2023/02/03 01:04:42;;;;;;;0.70;0.13;;;6.30;88.60;;;;;;5097539;27;20111;-71
2023/02/03 01:07:08;;;;;;;0.38;0.17;;;6.30;88.70;;;;;;5096770;28;20379;-71
2023/02/03 01:09:35;;;;;;;0.45;0.10;;;6.20;89.00;;;;;;5090875;28;20028;-71
2023/02/03 01:12:01;;;;;;;0.15;0.05;;;6.30;89.00;;;;;;5079449;28;20642;-71
2023/02/03 01:14:26;;;;;;;0.00;0.00;;;6.40;88.60;;;;;;5096758;28;20028;-71
2023/02/03 01:16:52;;;;;;;0.45;0.20;;;6.40;88.50;;;;;;5095147;28;20430;-71
2023/02/03 01:19:18;;;;;;;0.52;0.20;;;6.00;89.50;;;;;;5094317;28;20039;-71
2023/02/03 01:21:43;;;;;;;0.20;0.10;;;6.00;89.50;;;;;;5096959;28;20036;-71
2023/02/03 01:24:09;;;;;;;0.73;0.20;;;6.20;89.10;;;;;;5103425;28;20072;-71
2023/02/03 01:26:35;;;;;;;0.28;0.20;;;6.20;89.00;;;;;;5092415;28;20024;-71
2023/02/03 01:29:01;;;;;;;0.10;0.00;;;6.10;89.20;;;;;;5104134;28;20115;-71
2023/02/03 01:31:28;;;;;;;0.00;0.00;;;6.00;89.30;;;;;;5100830;28;20544;-71
2023/02/03 01:33:55;;;;;;;0.43;0.10;;;6.20;88.90;;;;;;5095446;28;20526;-71
2023/02/03 01:36:22;;;;;;;0.73;0.22;;;6.20;88.60;;;;;;5090261;28;20047;-71
2023/02/03 01:38:48;;;;;;;0.38;0.20;;;6.10;89.20;;;;;;5098181;28;20093;-71
2023/02/03 01:41:20;;;;;;;0.30;0.03;;;6.10;89.10;;;;;;5096784;28;20424;-71
2023/02/03 01:43:52;;;;;;;0.38;0.38;;;6.00;89.20;;;;;;5098763;28;24056;-71
2023/02/03 01:46:29;;;;;;;0.68;0.20;;;6.10;89.00;;;;;;5095141;28;20042;-71
2023/02/03 01:49:12;;;;;;;0.88;0.20;;;6.10;88.60;;;;;;5088443;28;20402;-71
2023/02/03 01:51:41;;;;;;;0.57;0.17;;;6.30;88.30;;;;;;5093765;28;20035;-71
2023/02/03 01:54:10;;;;;;;0.20;0.00;;;6.40;88.00;;;;;;5100588;28;20038;-71
2023/02/03 01:56:40;;;;;;;0.00;0.00;;;6.40;87.70;;;;;;5102653;28;20040;-71
2023/02/03 01:59:06;;;;;;;0.80;0.20;;;6.70;86.60;;;;;;5100778;28;21790;-71
2023/02/03 02:01:33;;;;;;;0.70;0.08;;;6.60;87.60;;;;;;5104367;28;20493;-71
2023/02/03 02:04:01;;;;;;;0.00;0.00;;;6.40;88.10;;;;;;5095288;28;20031;-71
2023/02/03 02:06:27;;;;;;;0.80;0.03;;;6.10;88.50;;;;;;5096220;28;20351;-71
2023/02/03 02:08:56;;;;;;;0.63;0.17;;;5.70;89.40;;;;;;5096508;28;20035;-71
2023/02/03 02:11:22;;;;;;;0.00;0.00;;;5.70;89.20;;;;;;5088575;28;20047;-71
2023/02/03 02:13:50;;;;;;;0.40;0.10;;;6.00;88.70;;;;;;5088490;28;20027;-71
2023/02/03 02:16:38;;;;;;;2.33;0.20;;;6.10;88.20;;;;;;5091063;28;20032;-71
2023/02/03 02:19:23;;;;;;;0.15;0.05;;;6.10;88.00;;;;;;5094606;28;20061;-71
2023/02/03 02:22:03;;;;;;;0.30;0.10;;;5.90;88.40;;;;;;5092321;28;20521;-71
2023/02/03 02:24:53;;;;;;;0.30;0.10;;;6.10;87.90;;;;;;5091014;28;20557;-71
2023/02/03 02:27:37;;;;;;;0.00;0.00;;;6.10;87.60;;;;;;5090645;28;20031;-70
2023/02/03 02:30:08;;;;;;;0.20;0.00;;;6.30;87.00;;;;;;5091654;28;20497;-71
2023/02/03 02:33:14;;;;;;;0.10;0.10;;;6.20;87.60;;;;;;5096263;27;20032;-71
2023/02/03 02:36:17;;;;;;;1.05;0.30;;;6.30;87.10;;;;;;5095089;28;20032;-71
2023/02/03 02:39:05;;;;;;;0.15;0.03;;;5.80;88.00;;;;;;5093175;27;20032;-71
2023/02/03 02:41:41;;;;;;;1.40;0.10;;;6.00;87.70;;;;;;5100244;28;20477;-71
2023/02/03 02:44:15;;;;;;;0.35;0.10;;;5.80;88.10;;;;;;5101126;28;20028;-71
2023/02/03 02:46:46;;;;;;;0.00;0.00;;;5.80;87.90;;;;;;5101158;28;20024;-71
2023/02/03 02:49:20;;;;;;;0.32;0.20;;;5.80;87.40;;;;;;5096682;28;20149;-71
2023/02/03 02:51:47;;;;;;;;;;;6.00;87.00;;;;;;5101820;28;20019;-71
2023/02/03 02:54:17;;;;;;;0.22;0.10;;;5.90;87.40;;;;;;5101202;27;20318;-71
2023/02/03 02:56:47;;;;;;;0.20;0.10;;;6.20;86.50;;;;;;5094220;28;20066;-71
2023/02/03 02:59:14;;;;;;;0.38;0.05;;;6.00;86.90;;;;;;5093553;28;20028;-71
2023/02/03 03:01:40;;;;;;;0.57;0.40;;;6.00;86.90;;;;;;5096353;28;20529;-71
2023/02/03 03:04:07;;;;;;;0.35;0.10;;;5.80;87.40;;;;;;5093615;28;20031;-71
2023/02/03 03:06:58;;;;;;;0.38;0.20;;;5.80;87.20;;;;;;5100684;28;20117;-71
2023/02/03 03:09:34;;;;;;;0.68;0.20;;;5.80;87.80;;;;;;5095356;28;20478;-71
2023/02/03 03:12:12;;;;;;;0.25;0.10;;;5.80;87.90;;;;;;5099606;28;20465;-71
2023/02/03 03:14:43;;;;;;;0.35;0.32;;;5.80;87.80;;;;;;5095296;28;20065;-71
2023/02/03 03:17:13;;;;;;;0.60;0.10;;;5.60;88.50;;;;;;5101221;28;20046;-71
2023/02/03 03:19:44;;;;;;;0.32;0.10;;;5.50;89.10;;;;;;5100369;28;20023;-71
2023/02/03 03:22:14;;;;;;;0.50;0.20;;;5.30;89.30;;;;;;5110140;28;20083;-71
2023/02/03 03:24:46;;;;;;;0.20;0.20;;;5.40;89.30;;;;;;5105710;28;20033;-71
2023/02/03 03:27:20;;;;;;;0.35;0.10;;;5.00;89.80;;;;;;5098164;28;20046;-71
2023/02/03 03:30:00;;;;;;;0.00;0.00;;;5.40;89.10;;;;;;5110936;28;20031;-71
2023/02/03 03:32:29;;;;;;;0.52;0.20;;;5.00;89.90;;;;;;5104914;28;20034;-71
2023/02/03 03:34:55;;;;;;;0.30;0.10;;;5.10;89.90;;;;;;5105482;28;20039;-71
2023/02/03 03:37:23;;;;;;;0.45;0.20;;;5.30;89.70;;;;;;5094775;28;20056;-71
2023/02/03 03:40:01;;;;;;;0.95;0.20;;;5.30;90.00;;;;;;5093797;28;20485;-71
2023/02/03 03:42:56;;;;;;;0.40;0.10;;;5.40;89.70;;;;;;5091323;28;20043;-71
2023/02/03 03:45:34;;;;;;;0.75;0.20;;;5.50;89.40;;;;;;5103001;28;20081;-71
2023/02/03 03:48:13;;;;;;;0.40;0.10;;;5.50;89.40;;;;;;5099719;28;20051;-71
2023/02/03 03:50:48;;;;;;;1.00;0.13;;;5.40;89.50;;;;;;5094562;28;20038;-71
2023/02/03 03:53:17;;;;;;;0.20;0.00;;;5.40;89.80;;;;;;5090955;28;20034;-71
2023/02/03 03:55:47;;;;;;;0.77;0.17;;;5.10;90.20;;;;;;5105452;28;20027;-71
2023/02/03 03:58:18;;;;;;;0.77;0.10;;;5.10;90.20;;;;;;5105500;28;20036;-71
2023/02/03 04:00:45;;;;;;;0.10;0.05;;;4.90;90.30;;;;;;5097672;28;20028;-69
2023/02/03 04:03:19;;;;;;;0.03;0.03;;;5.00;90.40;;;;;;5088485;28;20043;-69
2023/02/03 04:05:45;;;;;;;0.28;0.13;;;5.00;90.40;;;;;;5103422;28;20035;-69
2023/02/03 04:08:11;;;;;;;0.50;0.20;;;5.00;90.40;;;;;;5092743;28;20035;-69
2023/02/03 04:10:39;;;;;;;0.20;0.00;;;5.20;90.40;;;;;;5097384;28;20086;-69
2023/02/03 04:13:06;;;;;;;2.17;0.10;;;5.20;90.40;;;;;;5094092;27;20052;-69
2023/02/03 04:15:32;;;;;;;1.08;0.77;;;5.20;90.40;;;;;;5094561;28;20032;-69
2023/02/03 04:18:00;;;;;;;0.10;0.10;;;5.00;90.70;;;;;;5095572;28;20035;-69
2023/02/03 04:20:26;;;;;;;0.35;0.10;;;5.00;90.80;;;;;;5093632;28;20051;-69
2023/02/03 04:22:52;;;;;;;2.03;0.20;;;5.00;90.80;;;;;;5096621;28;20032;-69
2023/02/03 04:25:18;;;;;;;0.10;0.10;;;5.10;91.00;;;;;;5096900;28;20560;-69
2023/02/03 04:27:43;;;;;;;1.30;0.20;;;5.10;90.80;;;;;;5094892;28;20036;-69
2023/02/03 04:30:10;;;;;;;0.25;0.20;;;4.90;91.00;;;;;;5092204;28;20039;-69
2023/02/03 04:32:36;;;;;;;1.00;0.20;;;5.00;91.30;;;;;;5087191;28;20012;-69
2023/02/03 04:35:03;;;;;;;0.15;0.10;;;4.90;91.10;;;;;;5090444;28;20670;-69
2023/02/03 04:37:29;;;;;;;0.95;0.30;;;4.90;91.30;;;;;;5097372;28;20036;-69
2023/02/03 04:39:56;;;;;;;0.43;0.20;;;4.80;91.40;;;;;;5091773;28;20077;-70
2023/02/03 04:42:22;;;;;;;1.65;0.32;;;4.80;91.40;;;;;;5090796;28;20038;-69
2023/02/03 04:44:48;;;;;;;0.65;0.20;;;4.50;91.80;;;;;;5093363;28;20031;-69
2023/02/03 04:47:14;;;;;;;0.50;0.20;;;4.50;92.10;;;;;;5084935;28;20027;-69
2023/02/03 04:49:39;;;;;;;1.08;0.20;;;4.60;92.10;;;;;;5085886;28;20140;-69
2023/02/03 04:52:05;;;;;;;0.68;0.15;;;4.70;92.10;;;;;;5085924;28;20410;-69
2023/02/03 04:54:31;;;;;;;0.45;0.22;;;5.00;91.80;;;;;;5095556;28;20046;-69
2023/02/03 04:56:57;;;;;;;0.85;0.30;;;4.80;91.70;;;;;;5096867;28;20124;-69
2023/02/03 04:59:22;;;;;;;0.52;0.22;;;4.70;91.90;;;;;;5086736;28;20106;-69
2023/02/03 05:01:48;;;;;;;0.38;0.20;;;5.00;91.70;;;;;;5104852;28;20031;-70
2023/02/03 05:04:14;;;;;;;0.43;0.10;;;5.00;91.50;;;;;;5083074;28;20027;-69
2023/02/03 05:06:39;;;;;;;2.13;0.20;;;4.90;91.80;;;;;;5086858;28;20028;-69
2023/02/03 05:09:05;;;;;;;0.68;0.20;;;5.00;91.70;;;;;;5098527;28;20047;-69
2023/02/03 05:11:31;;;;;;;0.80;0.20;;;4.80;91.70;;;;;;5090761;28;20110;-69
2023/02/03 05:13:56;;;;;;;1.33;0.52;;;4.90;91.60;;;;;;5094876;28;20026;-69
2023/02/03 05:16:22;;;;;;;0.57;0.35;;;5.10;91.60;;;;;;5086972;28;20101;-69
2023/02/03 05:18:48;;;;;;;0.63;0.30;;;5.10;91.70;;;;;;5095883;28;20020;-69
2023/02/03 05:21:14;;;;;;;0.63;0.20;;;5.10;91.70;;;;;;5087841;28;20040;-69
2023/02/03 05:23:39;;;;;;;2.53;0.22;;;4.90;91.70;;;;;;5095690;28;20019;-70
2023/02/03 05:26:05;;;;;;;0.60;0.28;;;4.90;91.70;;;;;;5084689;28;20035;-69
2023/02/03 05:28:31;;;;;;;0.22;0.10;;;4.70;92.00;;;;;;5093434;28;20115;-69
2023/02/03 05:30:58;;;;;;;0.50;0.40;;;4.70;92.20;;;;;;5094447;28;20020;-69
2023/02/03 05:33:24;;;;;;;0.63;0.45;;;4.70;92.00;;;;;;5095657;28;20076;-70
2023/02/03 05:35:49;;;;;;;0.85;0.40;;;4.70;92.00;;;;;;5086558;28;20413;-69
2023/02/03 05:38:15;;;;;;;0.68;0.20;;;4.40;92.20;;;;;;5095486;28;20052;-69
2023/02/03 05:43:26;;;;;;;0.45;0.20;;;4.30;92.80;;;;;;5083439;28;20046;-69
2023/02/03 05:45:52;;;;;;;0.93;0.22;;;4.60;92.50;;;;;;5092284;28;20107;-69
2023/02/03 05:48:18;;;;;;;0.30;0.20;;;4.40;92.50;;;;;;5091705;28;20111;-69
2023/02/03 05:50:43;;;;;;;3.92;1.20;;;4.40;92.70;;;;;;5090605;28;20032;-70
2023/02/03 05:53:09;;;;;;;1.35;0.50;;;4.40;92.60;;;;;;5088700;28;20028;-69
2023/02/03 05:55:35;;;;;;;1.70;0.75;;;4.10;92.80;;;;;;5091662;28;20409;-69
2023/02/03 05:58:01;;;;;;;0.65;0.20;;;4.20;92.90;;;;;;5085205;28;20447;-70
2023/02/03 06:00:28;;;;;;;1.83;0.28;;;4.40;92.70;;;;;;5090081;28;20047;-69
2023/02/03 06:02:58;;;;;;;0.70;0.35;;;4.20;92.80;;;;;;5094586;28;20498;-69
2023/02/03 06:05:24;;;;;;;0.25;0.15;;;4.30;92.90;;;;;;5094802;28;21114;-70
2023/02/03 06:07:50;;;;;;;2.25;0.98;;;4.20;92.70;;;;;;5095290;28;20450;-69
2023/02/03 06:10:17;;;;;;;1.13;0.55;;;4.10;93.00;;;;;;5094696;28;20053;-69
2023/02/03 06:12:43;;;;;;;3.20;0.93;;;4.00;93.10;;;;;;5100014;28;20044;-69
2023/02/03 06:15:09;;;;;;;1.85;0.82;;;4.00;93.10;;;;;;5091357;28;20130;-69
2023/02/03 06:17:36;;;;;;;1.25;0.80;;;4.00;93.10;;;;;;5092120;28;20032;-69
2023/02/03 06:20:11;;;;;;;3.75;0.73;;;4.00;93.10;;;;;;5085620;28;20028;-69
2023/02/03 06:22:37;;;;;;;0.43;0.30;;;4.00;93.30;;;;;;5095602;28;20036;-69
2023/02/03 06:25:03;;;;;;;1.67;0.20;;;4.30;93.00;;;;;;5091389;28;20035;-69
2023/02/03 06:27:29;;;;;;;1.92;0.65;;;4.30;92.90;;;;;;5090523;28;20024;-69
2023/02/03 06:29:55;;;;;;;0.73;0.30;;;4.50;92.70;;;;;;5088967;28;20766;-69
2023/02/03 06:32:20;;;;;;;1.70;0.47;;;4.10;92.90;;;;;;5091674;28;20076;-69
2023/02/03 06:34:46;;;;;;;3.20;0.35;;;4.30;92.90;;;;;;5090885;28;20023;-69
2023/02/03 06:37:12;;;;;;;0.30;0.25;;;4.00;93.00;;;;;;5090171;28;20562;-70
2023/02/03 06:39:37;;;;;;;0.80;0.38;;;4.00;93.30;;;;;;5091035;28;20079;-70
2023/02/03 06:42:03;;;;;;;1.50;0.47;;;4.10;93.20;;;;;;5091156;28;20153;-71
2023/02/03 06:44:29;;;;;;;1.38;0.63;;;4.20;93.10;;;;;;5091409;28;20020;-71
2023/02/03 06:46:55;;;;;;;0.65;0.30;;;4.40;93.10;;;;;;5084427;28;20110;-71
2023/02/03 06:49:20;;;;;;;0.95;0.50;;;4.40;93.20;;;;;;5081010;28;20482;-71
2023/02/03 06:51:46;;;;;;;1.83;0.40;;;4.20;93.20;;;;;;5080691;28;20043;-71
2023/02/03 06:54:13;;;;;;;2.53;0.50;;;4.10;93.30;;;;;;5082876;28;20032;-71
2023/02/03 06:56:39;;;;;;;0.80;0.43;;;3.90;93.50;;;;;;5084054;28;20032;-71
2023/02/03 06:59:05;;;;;;;0.75;0.40;;;4.10;93.20;;;;;;5093714;28;20629;-71
2023/02/03 07:01:31;;;;;;;1.10;0.47;;;4.00;93.30;;;;;;5078439;28;20549;-71
2023/02/03 07:03:57;;;;;;;0.17;0.10;;;4.00;93.60;;;;;;5087200;28;20048;-71
2023/02/03 07:06:27;;;;;;;1.23;0.47;;;4.00;93.70;;;;;;5092301;28;20035;-71
2023/02/03 07:08:54;;;;;;;2.33;0.63;;;3.80;93.60;;;;;;5085316;28;20031;-71
2023/02/03 07:11:20;;;;;;;0.57;0.10;;;4.00;94.00;;;;;;5085239;28;20016;-71
2023/02/03 07:13:45;;;;;;;0.80;0.30;;;4.00;93.50;;;;;;5088504;28;20034;-71
2023/02/03 07:16:11;;;;;;;1.65;0.60;;;4.00;93.40;;;;;;5085565;28;20603;-71
2023/02/03 07:18:37;;;;;;;0.63;0.38;;;3.90;93.70;;;;;;5090835;28;20055;-71
2023/02/03 07:21:05;;;;;;;0.93;0.30;;;3.90;93.60;;;;;;5075926;28;20027;-72
2023/02/03 07:23:30;;;;;;;0.90;0.38;;;4.20;93.60;;;;;;5099366;28;20080;-71
2023/02/03 07:26:00;;;;;;;1.38;0.52;;;4.50;93.30;;;;;;5094882;28;20027;-71
2023/02/03 07:28:25;;;;;;;1.30;0.40;;;4.40;93.10;;;;;;5105232;28;20028;-72
2023/02/03 07:30:51;;;;;;;2.45;0.38;;;4.60;93.00;;;;;;5089233;28;20028;-72
2023/02/03 07:33:17;;;;;;;0.65;0.30;;;4.80;92.80;;;;;;5086190;28;20031;-72
2023/02/03 07:35:42;;;;;;;1.13;0.65;;;4.80;92.70;;;;;;5093393;28;20098;-71
2023/02/03 07:38:09;;;;;;;0.47;0.25;;;5.00;92.50;;;;;;5088798;27;20155;-71
2023/02/03 07:40:35;;;;;;;0.93;0.43;;;4.90;92.50;;;;;;5092175;28;20036;-71
2023/02/03 07:43:00;;;;;;;0.70;0.50;;;4.90;92.40;;;;;;5087851;28;20072;-71
2023/02/03 07:45:26;;;;;;;2.33;0.50;;;5.00;92.40;;;;;;5083761;28;20028;-72
2023/02/03 07:47:52;;;;;;;1.63;0.60;;;5.10;92.40;;;;;;5089541;28;20059;-71
2023/02/03 07:50:17;;;;;;;0.75;0.40;;;5.00;92.40;;;;;;5094948;28;20034;-72
2023/02/03 07:52:43;;;;;;;2.30;0.95;;;5.00;92.50;;;;;;5089852;28;20031;-72
2023/02/03 07:55:09;;;;;;;5.72;1.40;;;4.80;92.70;;;;;;5086718;28;20036;-72
2023/02/03 07:57:35;;;;;;;2.25;1.35;;;4.40;93.20;;;;;;5083203;28;20132;-71
2023/02/03 08:00:02;;;;;;;3.60;2.25;;;4.40;93.40;;;;;;5083533;28;20119;-71
2023/02/03 08:02:28;;;;;;;2.00;0.90;;;4.10;93.90;;;;;;5082772;28;20028;-70
2023/02/03 08:04:56;;;;;;;4.60;1.42;;;4.00;93.80;;;;;;5090171;28;20077;-70
2023/02/03 08:07:22;;;;;;;3.63;1.20;;;4.10;94.00;;;;;;5090483;28;20122;-69
2023/02/03 08:09:48;;;;;;;2.97;1.20;;;4.10;93.60;;;;;;5089909;27;20106;-69
2023/02/03 08:12:13;;;;;;;5.63;1.48;;;4.10;93.80;;;;;;5085106;28;20573;-69
2023/02/03 08:14:39;;;;;;;1.83;0.60;;;3.90;93.90;;;;;;5086559;28;20032;-69
2023/02/03 08:17:05;;;;;;;0.90;0.45;;;3.90;94.10;;;;;;5085462;27;20104;-69
2023/02/03 08:19:30;;;;;;;1.85;0.82;;;4.00;94.10;;;;;;5095321;28;20385;-69
2023/02/03 08:21:58;;;;;;;2.15;0.57;;;4.10;94.10;;;;;;5090210;28;20054;-69
2023/02/03 08:24:23;;;;;;;1.92;0.65;;;4.10;94.20;;;;;;5099867;28;20035;-69
2023/02/03 08:26:49;;;;;;;4.07;0.85;;;4.10;94.20;;;;;;5088797;28;20747;-69
2023/02/03 08:29:14;;;;;;;2.70;0.95;;;4.20;94.10;;;;;;5092771;28;20082;-69
2023/02/03 08:31:43;;;;;;;2.65;1.05;;;4.20;94.00;;;;;;5097498;28;20107;-69
2023/02/03 08:34:09;;;;;;;2.08;1.00;;;4.10;94.40;;;;;;5082778;28;20024;-69
2023/02/03 08:36:38;;;;;;;0.80;0.50;;;4.10;94.60;;;;;;5093141;28;20547;-69
2023/02/03 08:39:03;;;;;;;1.00;0.60;;;4.00;94.50;;;;;;5090330;28;20047;-69
2023/02/03 08:41:29;;;;;;;2.92;0.75;;;4.00;94.40;;;;;;5091239;28;20387;-69
2023/02/03 08:43:55;;;;;;;3.88;1.15;;;3.90;95.00;;;;;;5087340;28;20558;-68
2023/02/03 08:46:21;;;;;;;1.77;0.70;;;4.00;94.60;;;;;;5097457;27;20099;-69
2023/02/03 08:48:46;;;;;;;2.28;0.77;;;4.00;94.50;;;;;;5089847;28;20059;-69
2023/02/03 08:51:15;;;;;;;2.50;1.10;;;4.10;94.30;;;;;;5103012;28;20043;-69
2023/02/03 08:53:40;;;;;;;2.67;0.80;;;4.00;95.20;;;;;;5085140;28;20466;-68
2023/02/03 08:56:09;;;;;;;4.35;1.10;;;3.90;94.80;;;;;;5093382;28;20109;-68
2023/02/03 08:58:35;;;;;;;1.67;0.70;;;4.10;94.60;;;;;;5089080;28;20031;-69
2023/02/03 09:01:09;;;;;;;3.05;0.70;;;4.20;94.60;;;;;;5085955;28;20473;-69
2023/02/03 09:03:35;;;;;;;3.97;1.30;;;4.40;94.10;;;;;;5091937;28;20382;-69
2023/02/03 09:06:00;;;;;;;3.20;1.15;;;4.40;94.50;;;;;;5084374;28;20032;-69
2023/02/03 09:08:27;;;;;;;2.72;1.00;;;4.40;94.10;;;;;;5082223;28;20077;-69
2023/02/03 09:10:52;;;;;;;2.13;0.95;;;4.40;94.10;;;;;;5087980;28;20024;-69
2023/02/03 09:13:18;;;;;;;2.08;0.93;;;4.50;93.80;;;;;;5095124;28;20027;-69
2023/02/03 09:15:43;;;;;;;1.85;0.70;;;4.50;93.70;;;;;;5090098;28;20040;-69
2023/02/03 09:18:09;;;;;;;1.05;0.50;;;4.50;93.80;;;;;;5094469;28;20150;-69
2023/02/03 09:20:35;;;;;;;1.80;0.57;;;4.50;94.20;;;;;;5100732;28;20481;-69
2023/02/03 09:23:00;;;;;;;2.28;0.70;;;4.50;94.30;;;;;;5088045;28;20024;-68
2023/02/03 09:25:26;;;;;;;1.58;0.90;;;4.60;93.80;;;;;;5093092;28;20038;-68
2023/02/03 09:27:51;;;;;;;1.80;0.60;;;4.80;93.00;;;;;;5089068;28;20024;-69
2023/02/03 09:30:17;;;;;;;2.58;0.52;;;5.00;93.00;;;;;;5083083;28;20035;-69
2023/02/03 09:32:46;;;;;;;1.63;0.80;;;5.10;92.70;;;;;;5091307;28;20108;-68
2023/02/03 09:35:11;;;;;;;2.10;0.68;;;5.20;92.70;;;;;;5082752;28;20032;-69
2023/02/03 09:37:37;;;;;;;1.15;0.47;;;5.10;92.90;;;;;;5084822;28;20034;-69
2023/02/03 09:40:03;;;;;;;5.63;0.93;;;5.10;93.00;;;;;;5082968;28;20042;-68
2023/02/03 09:42:30;;;;;;;2.83;1.15;;;5.20;93.10;;;;;;5082756;28;20043;-68
2023/02/03 09:45:05;;;;;;;2.72;1.27;;;5.30;93.10;;;;;;5079863;28;20020;-68
2023/02/03 09:47:37;;;;;;;6.20;1.52;;;5.40;93.40;;;;;;5091021;28;20077;-69
2023/02/03 09:50:13;;;;;;;2.83;1.20;;;5.40;93.50;;;;;;5080783;28;20495;-69
2023/02/03 09:52:40;;;;;;;2.70;1.15;;;5.50;93.20;;;;;;5095232;28;20035;-69
2023/02/03 09:55:18;;;;;;;2.92;1.30;;;5.60;92.90;;;;;;5087546;28;20051;-69
2023/02/03 09:57:55;;;;;;;5.72;1.30;;;5.60;93.20;;;;;;5085121;28;20466;-68
2023/02/03 10:00:23;;;;;;;1.52;0.68;;;5.70;92.90;;;;;;5090637;28;20027;-69
2023/02/03 10:03:01;;;;;;;3.45;1.52;;;5.70;92.70;;;;;;5091284;28;20028;-69
2023/02/03 10:05:39;;;;;;;4.25;2.10;;;5.70;92.70;;;;;;5088306;28;20104;-69
2023/02/03 10:08:11;;;;;;;3.53;0.70;;;5.90;92.60;;;;;;5082591;28;20032;-68
2023/02/03 10:10:47;;;;;;;2.03;0.90;;;6.00;92.60;;;;;;5097521;28;20038;-68
2023/02/03 10:13:35;;;;;;;2.20;0.88;;;6.10;92.30;;;;;;5089375;28;20116;-69
2023/02/03 10:16:18;;;;;;;3.20;1.50;;;6.20;92.10;;;;;;5089118;28;20707;-69
2023/02/03 10:18:52;;;;;;;5.03;1.30;;;6.30;92.70;;;;;;5080413;28;20631;-68
2023/02/03 10:21:47;;;;;;;6.55;2.05;;;6.30;92.80;;;;;;5081224;28;20031;-69
2023/02/03 10:24:22;;;;;;;2.97;1.45;;;6.30;92.80;;;;;;5087691;28;20050;-69
2023/02/03 10:26:48;;;;;;;3.60;1.65;;;6.40;92.40;;;;;;5095149;28;20849;-69
2023/02/03 10:29:23;;;;;;;7.65;1.65;;;6.60;92.60;;;;;;5090353;28;20429;-69
2023/02/03 10:31:48;;;;;;;;;;;6.70;92.20;;;;;;5083049;28;20097;-69
2023/02/03 10:34:16;;;;;;;4.10;2.17;;;6.70;92.10;;;;;;5088333;28;19916;-68
2023/02/03 10:36:54;;;;;;;2.67;1.50;;;6.70;92.20;;;;;;5096054;28;20071;-69
2023/02/03 10:39:40;;;;;;;3.17;1.35;;;6.70;92.20;;;;;;5083926;28;20605;-69
2023/02/03 10:42:06;;;;;;;3.67;1.10;;;6.70;91.80;;;;;;5081702;28;20366;-68
2023/02/03 10:44:48;;;;;;;3.88;1.40;;;6.80;92.40;;;;;;5080618;28;20032;-69
2023/02/03 10:47:20;;;;;;;3.88;1.30;;;6.80;91.80;;;;;;5082032;28;20432;-69
2023/02/03 10:49:48;;;;;;;4.53;1.30;;;6.90;91.80;;;;;;5083155;28;20031;-69
2023/02/03 10:52:37;;;;;;;2.13;1.40;;;6.90;91.40;;;;;;5102413;28;20074;-69
2023/02/03 10:55:28;;;;;;;3.17;1.40;;;7.10;91.70;;;;;;5078625;28;20179;-68
2023/02/03 10:57:55;;;;;;;2.55;1.15;;;7.20;91.20;;;;;;5093027;28;20028;-68
2023/02/03 11:00:33;;;;;;;2.67;1.30;;;7.20;91.30;;;;;;5088911;28;20081;-69
2023/02/03 11:03:27;;;;;;;9.07;1.38;;;7.40;91.80;;;;;;5103370;28;20109;-69
2023/02/03 11:06:13;;;;;;;4.82;2.10;;;7.60;91.40;;;;;;5087625;28;20031;-69
2023/02/03 11:08:44;;;;;;;15.15;2.03;;;7.70;91.10;;;;;;5090983;28;20024;-69
2023/02/03 11:11:23;;;;;;;4.63;1.40;;;7.70;91.20;;;;;;5092260;28;20031;-69
2023/02/03 11:14:15;;;;;;;15.77;6.50;;;7.60;91.10;;;;;;5097734;28;20042;-69
2023/02/03 11:16:42;;;;;;;7.25;3.40;;;7.90;90.80;;;;;;5092418;28;20124;-69
2023/02/03 11:19:15;;;;;;;5.30;2.05;;;7.90;91.00;;;;;;5092744;28;20073;-69
2023/02/03 11:21:45;;;;;;;5.10;2.10;;;7.80;90.40;;;;;;5091755;28;20044;-69
2023/02/03 11:24:22;;;;;;;3.42;1.42;;;7.90;90.40;;;;;;5089721;28;20039;-69
2023/02/03 11:27:19;;;;;;;3.63;1.77;;;8.00;90.30;;;;;;5098611;28;20390;-69
2023/02/03 11:29:53;;;;;;;5.38;2.50;;;8.10;90.50;;;;;;5073921;28;20044;-69
2023/02/03 11:32:23;;;;;;;3.22;1.67;;;8.50;89.70;;;;;;5092577;28;20086;-69
2023/02/03 11:35:14;;;;;;;4.40;2.42;;;8.50;89.30;;;;;;5083807;28;20518;-69
2023/02/03 11:37:51;;;;;;;3.00;1.63;;;8.90;88.90;;;;;;5086446;28;20040;-69
2023/02/03 11:40:20;;;;;;;5.97;3.42;;;9.00;89.40;;;;;;5086389;28;20467;-69
2023/02/03 11:43:15;;;;;;;5.13;3.05;;;9.30;88.90;;;;;;5091296;28;20024;-69
2023/02/03 11:45:48;;;;;;;4.28;1.90;;;9.30;88.60;;;;;;5081982;28;20122;-69
2023/02/03 11:48:25;;;;;;;2.95;1.80;;;9.40;89.10;;;;;;5091769;28;20636;-69
2023/02/03 11:51:08;;;;;;;4.07;1.65;;;9.40;87.50;;;;;;5101505;28;20085;-69
2023/02/03 11:54:03;;;;;;;2.25;1.48;;;9.50;87.70;;;;;;5090816;28;20606;-69
2023/02/03 11:56:31;;;;;;;2.10;0.90;;;9.70;86.70;;;;;;5104352;28;20031;-69
2023/02/03 11:59:35;;;;;;;2.28;0.70;;;9.80;86.00;;;;;;5104656;28;20031;-69
2023/02/03 12:02:28;;;;;;;4.32;1.08;;;9.90;84.50;;;;;;5076184;28;20127;-69
2023/02/03 12:05:28;;;;;;;3.75;1.33;;;9.90;84.10;;;;;;5088572;28;20020;-69
2023/02/03 12:08:12;;;;;;;1.42;0.75;;;9.90;85.70;;;;;;5088356;28;20039;-69
2023/02/03 12:10:41;;;;;;;3.90;1.20;;;10.00;84.20;;;;;;5095584;28;20030;-69
2023/02/03 12:13:06;;;;;;;4.93;2.00;;;10.00;83.90;;;;;;5088551;28;20461;-69
2023/02/03 12:15:51;;;;;;;3.03;1.58;;;10.20;83.80;;;;;;5088357;28;20027;-69
2023/02/03 12:18:35;;;;;;;3.90;1.77;;;10.40;83.80;;;;;;5083945;28;20077;-69
2023/02/03 12:21:19;;;;;;;2.50;1.42;;;10.50;84.10;;;;;;5095713;27;20032;-69
2023/02/03 12:24:03;;;;;;;1.63;0.77;;;10.50;83.10;;;;;;5090626;28;20111;-69
2023/02/03 12:26:40;;;;;;;1.85;1.13;;;10.50;83.30;;;;;;5091210;28;20051;-69
2023/02/03 12:29:12;;;;;;;4.07;0.90;;;10.50;83.40;;;;;;5095634;28;20028;-69
2023/02/03 12:31:50;;;;;;;6.28;1.27;;;10.30;82.50;;;;;;5085085;28;20118;-69
2023/02/03 12:34:31;;;;;;;2.42;1.38;;;10.30;83.00;;;;;;5089077;28;20046;-69
2023/02/03 12:37:18;;;;;;;2.65;1.33;;;10.40;83.40;;;;;;5094202;28;20416;-69
2023/02/03 12:39:58;;;;;;;6.03;1.27;;;10.40;82.90;;;;;;5093952;28;20032;-69
2023/02/03 12:42:33;;;;;;;3.83;1.35;;;10.60;83.30;;;;;;5094438;28;20055;-69
2023/02/03 12:45:02;;;;;;;3.92;1.15;;;10.70;83.50;;;;;;5101446;28;20096;-69
2023/02/03 12:47:39;;;;;;;4.40;1.70;;;10.60;83.00;;;;;;5086542;28;20039;-69
2023/02/03 12:50:14;;;;;;;3.90;1.55;;;10.70;82.90;;;;;;5092189;28;20028;-69
2023/02/03 12:52:51;;;;;;;20.00;10.02;;;10.70;81.90;;;;;;5085584;28;20031;-69
2023/02/03 12:56:03;;;;;;;13.90;7.50;;;10.80;82.00;;;;;;5090251;28;20855;-69
2023/02/03 12:58:50;;;;;;;11.05;6.10;;;11.00;82.30;;;;;;5080357;28;20040;-69
2023/02/03 13:01:22;;;;;;;25.88;15.10;;;11.00;82.80;;;;;;5095860;28;20038;-69
2023/02/03 13:04:27;;;;;;;14.20;6.88;;;11.00;82.10;;;;;;5093841;28;20019;-69
2023/02/03 13:07:07;;;;;;;2.55;0.95;;;11.00;82.20;;;;;;5088922;28;20034;-69
2023/02/03 13:09:57;;;;;;;6.00;1.45;;;11.00;81.30;;;;;;5091570;28;20077;-69
2023/02/03 13:12:30;;;;;;;11.38;5.50;;;11.00;82.00;;;;;;5094479;28;20039;-69
2023/02/03 13:15:20;;;;;;;12.10;6.13;;;11.00;80.40;;;;;;5095614;28;20024;-69
2023/02/03 13:18:34;;;;;;;3.92;1.25;;;10.90;81.30;;;;;;5086713;28;20074;-69